Pendleton, South Carolina
Current Conditions -  °F | °C
As of 11:54 PM on Sunday 21 Dec 2014 (Local Time) from KCEU Reporting Station
Overcast Overcast  
Wind Chill: 43°   Ceiling: 2400
Heat Index: 48°   Visibility: 9mi
Dew Point: 39°   Wind: 12mph
Humidity: 71%   Direction: 60°ENE
Pressure: 30.16"   Gusts: NA
Location:  34.65°N, 82.78°W
Report Text: KCEU 220454Z AUTO 06010KT 9SM BKN024 OVC030 09/04 A3016 RMK AO2 RAE02 SLP213 P0000 T00890039 401170067
Loading
Personal Weather Stations






























Interactive Weather Map New forecast layout! Learn more

10-Day Weather Forecast

Advertisements
Track Severe Weather on mobile